Forrest Airport
YFRT : now visible

Airfield :











YOU CAN JOIN US ON...

 
LOGIN :

Register | Disclaimer

   EN    FR    IT 

 









Legend :    VFR   Marginal VFR   IFR   Intensive IFR   Very Intensive IFR
Visi :
Ceiling :
>= 8 km
>= 3000ft
5 to 8 km
1000 to 3000 ft
1500m to 5 km
500 to 1000 ft
800 to 1500m
200 to 500 ft
< 800m
< 200 ft
Symbols :   Thunderstorms  Fog  Heavy snow  Heavy precipitations  Wind > 20 kt






- Airport Elevation : 511 ft
- IATA code : FOS


YFRT - Forrest

CURRENT METAR :
  • 220000Z AUTO 19010KT 9999 // SCT072 OVC086 18/08 Q1021

EXPIRED METARs :
  • 212330Z AUTO 20007KT 9999 // BKN068 OVC077 OVC089 17/09 Q1020
  • 212300Z AUTO 20007KT 9999 // SCT068 OVC089 17/09 Q1020
  • 212230Z AUTO 20007KT 9999 // BKN062 OVC073 OVC089 16/10 Q1020
  • 212200Z AUTO 20007KT 9999 // SCT060 BKN073 OVC090 16/10 Q1019
  • 212130Z AUTO 20005KT 9999 // BKN056 OVC067 15/11 Q1019

TAF TAF YFRT
Valid from the 21 at 20:00 until the 22 at 08:00 UTC


211810Z 2120/2208 20012KT CAVOK
YMMM FIR / Oceania



MET'MAP, your aeronautical weather chart ! - Copyright ORBIFLY December 2007 - Disclaimer

ORBIFLY MET'MAP TEAM :

Programming & Development : Alexandra Zaïnal
Concept & original design : Baudouin d'Aumeries
Assistance for programming : Marc-Olivier Méhu
Technical & hardware support : Manuel Goepfert

Contact : metmap@orbifly.com




SOURCES & CREDITS :

   NOAA       Earth
Advisory